Owatonna, MN

10:05 AM CST on February 20, 2018 (GMT -0600)
Owatonna Degner Regional

Weather History for KOWA - January, 2013

Change the Weather History Date:

Friday, January 18, 2013

  Actual Average Record
Temperature  
Mean Temperature 34 °F -  
Max Temperature 46 °F 22 °F 47 °F (1981)
Min Temperature 21 °F 3 °F -32 °F (1967)
Degree Days  
Heating Degree Days 32    
Moisture  
Dew Point 24 °F    
Average Humidity 64    
Maximum Humidity 75    
Minimum Humidity 49    
Precipitation  
Precipitation 0.00 in - - ()
Sea Level Pressure  
Sea Level Pressure 29.89 in    
Wind  
Wind Speed 11 mph (SSW)    
Max Wind Speed 24 mph    
Max Gust Speed 32 mph    
Visibility 10 miles    
Events      
Averages and records for this station are not official NWS values.
T = Trace of Precipitation, MM = Missing Value Source: NWS Daily Summary

Daily Weather History Graph

Daily Weather History Graph

Search for Another Location

Airport or City:

Trip Planner

Search our weather history database for the weather conditions in past years. The results will help you decide how hot, cold, wet, or windy it might be!

Date:

Astronomy

Jan. 18, 2013 Rise Set
Actual Time 7:42 AM CST 5:04 PM CST
Civil Twilight 7:11 AM CST 5:36 PM CST
Nautical Twilight 6:35 AM CST 6:12 PM CST
Astronomical Twilight 6:01 AM CST 6:46 PM CST
Moon 11:03 AM CST (1/18) 12:12 AM CST (1/18)
Length of Visible Light 10h 25m
Length of Day
9h 21m
Waxing Crescent, 47% of the Moon is Illuminated
Jan 18
Waxing Crescent
Jan 18
First Quarter
Jan 26
Full
Feb 3
Last Quarter
Feb 10
New

Hourly Weather History & Observations

Time (CST) Temp. Windchill Dew Point Humidity Pressure Visibility Wind Dir Wind Speed Gust Speed Precip Events Conditions
12:14 AM 21.2 °F 16.4 °F 12.2 °F 68% 30.24 in 10.0 mi ESE 3.5 mph - N/A   Overcast
12:34 AM 23.0 °F 18.4 °F 14.0 °F 68% 30.24 in 10.0 mi SE 3.5 mph - N/A   Overcast
12:54 AM 23.0 °F 15.8 °F 14.0 °F 68% 30.23 in 10.0 mi ESE 5.8 mph - N/A   Overcast
1:14 AM 23.0 °F 15.8 °F 14.0 °F 68% 30.22 in 10.0 mi SE 5.8 mph - N/A   Overcast
1:34 AM 24.8 °F 16.1 °F 14.0 °F 64% 30.21 in 10.0 mi SE 8.1 mph - N/A   Overcast
1:54 AM 24.8 °F 15.3 °F 14.0 °F 64% 30.19 in 10.0 mi SE 9.2 mph - N/A   Overcast
2:13 AM 24.8 °F 15.3 °F 14.0 °F 64% 30.17 in 10.0 mi SE 9.2 mph - N/A   Overcast
2:34 AM 24.8 °F - 14.0 °F 64% 30.15 in 10.0 mi Calm Calm - N/A   Overcast
2:54 AM 24.8 °F 12.4 °F 14.0 °F 64% 30.14 in 10.0 mi SE 15.0 mph - N/A   Mostly Cloudy
3:14 AM 24.8 °F 12.4 °F 14.0 °F 64% 30.12 in 10.0 mi SE 15.0 mph - N/A   Scattered Clouds
3:34 AM 26.6 °F 14.3 °F 15.8 °F 64% 30.10 in 10.0 mi SE 16.1 mph - N/A   Clear
3:54 AM 26.6 °F 11.7 °F 15.8 °F 64% 30.06 in 10.0 mi SE 24.2 mph 29.9 mph N/A   Clear
4:13 AM 26.6 °F 12.4 °F 17.6 °F 69% 30.05 in 10.0 mi SSE 21.9 mph 28.8 mph N/A   Clear
4:34 AM 28.4 °F 14.4 °F 17.6 °F 64% 30.04 in 10.0 mi SSE 23.0 mph 28.8 mph N/A   Clear
4:54 AM 28.4 °F 15.4 °F 19.4 °F 69% 30.02 in 10.0 mi SSE 19.6 mph 24.2 mph N/A   Clear
5:14 AM 28.4 °F 15.4 °F 19.4 °F 69% 29.99 in 10.0 mi SSE 19.6 mph 32.2 mph N/A   Clear
5:34 AM 30.2 °F 18.5 °F 19.4 °F 64% 29.98 in 10.0 mi SSE 17.3 mph 29.9 mph N/A   Clear
5:54 AM 30.2 °F 18.5 °F 21.2 °F 69% 29.97 in 10.0 mi SSE 17.3 mph 21.9 mph N/A   Clear
6:14 AM 30.2 °F 19.8 °F 21.2 °F 69% 29.96 in 10.0 mi SSE 13.8 mph 20.7 mph N/A   Clear
6:34 AM 30.2 °F 21.3 °F 21.2 °F 69% 29.94 in 10.0 mi SSE 10.4 mph - N/A   Clear
6:54 AM 32.0 °F 23.0 °F 23.0 °F 69% 29.93 in 10.0 mi SSE 11.5 mph 18.4 mph N/A   Clear
7:14 AM 32.0 °F 23.6 °F 23.0 °F 69% 29.93 in 10.0 mi South 10.4 mph - N/A   Clear
7:34 AM 32.0 °F 22.5 °F 23.0 °F 69% 29.92 in 10.0 mi South 12.7 mph - N/A   Clear
7:54 AM 33.8 °F 25.8 °F 23.0 °F 65% 29.92 in 10.0 mi South 10.4 mph - N/A   Clear
8:13 AM 33.8 °F 24.8 °F 24.8 °F 70% 29.90 in 10.0 mi South 12.7 mph - N/A   Clear
8:34 AM 33.8 °F 25.3 °F 24.8 °F 70% 29.90 in 10.0 mi South 11.5 mph - N/A   Clear
8:54 AM 35.6 °F 26.2 °F 24.8 °F 65% 29.89 in 10.0 mi South 15.0 mph 20.7 mph N/A   Clear
9:14 AM 35.6 °F 26.2 °F 24.8 °F 65% 29.88 in 10.0 mi South 15.0 mph - N/A   Clear
9:34 AM 37.4 °F 28.2 °F 24.8 °F 60% 29.87 in 10.0 mi South 16.1 mph - N/A   Clear
9:54 AM 37.4 °F 27.2 °F 24.8 °F 60% 29.86 in 10.0 mi South 19.6 mph 23.0 mph N/A   Clear
10:14 AM 39.2 °F 29.8 °F 26.6 °F 61% 29.86 in 10.0 mi South 18.4 mph - N/A   Clear
10:34 AM 37.4 °F 28.2 °F 26.6 °F 65% 29.85 in 10.0 mi SSW 16.1 mph - N/A   Clear
10:54 AM 39.2 °F 29.8 °F 26.6 °F 61% 29.83 in 10.0 mi SSW 18.4 mph - N/A   Clear
11:14 AM 41.0 °F 32.5 °F 26.6 °F 57% 29.82 in 10.0 mi SSW 17.3 mph 23.0 mph N/A   Clear
11:34 AM 42.8 °F 35.1 °F 26.6 °F 53% 29.81 in 10.0 mi SSW 16.1 mph - N/A   Clear
11:54 AM 44.6 °F 37.2 °F 26.6 °F 49% 29.79 in 10.0 mi SSW 17.3 mph 23.0 mph N/A   Clear
12:14 PM 44.6 °F 36.9 °F 28.4 °F 53% 29.78 in 10.0 mi SSW 18.4 mph - N/A   Clear
12:34 PM 44.6 °F 36.6 °F 28.4 °F 53% 29.77 in 10.0 mi SSW 19.6 mph 24.2 mph N/A   Clear
12:54 PM 44.6 °F 37.2 °F 28.4 °F 53% 29.76 in 10.0 mi SW 17.3 mph - N/A   Clear
1:14 PM 46.4 °F 39.0 °F 28.4 °F 50% 29.75 in 10.0 mi SSW 19.6 mph - N/A   Clear
1:34 PM 46.4 °F 39.5 °F 28.4 °F 50% 29.75 in 10.0 mi SSW 17.3 mph 21.9 mph N/A   Clear
1:54 PM 46.4 °F 40.7 °F 28.4 °F 50% 29.74 in 10.0 mi SSW 12.7 mph 18.4 mph N/A   Clear
2:14 PM 46.4 °F 40.1 °F 30.2 °F 53% 29.74 in 10.0 mi SW 15.0 mph - N/A   Clear
2:34 PM 46.4 °F 41.5 °F 30.2 °F 53% 29.74 in 10.0 mi SW 10.4 mph - N/A   Clear
2:54 PM 46.4 °F 41.1 °F 28.4 °F 50% 29.75 in 10.0 mi SW 11.5 mph 18.4 mph N/A   Clear
3:14 PM 46.4 °F 41.1 °F 28.4 °F 50% 29.75 in 10.0 mi WSW 11.5 mph - N/A   Clear
3:34 PM 46.4 °F 41.1 °F 28.4 °F 50% 29.75 in 10.0 mi WSW 11.5 mph - N/A   Clear
3:54 PM 44.6 °F 38.8 °F 28.4 °F 53% 29.75 in 10.0 mi WSW 11.5 mph - N/A   Clear
4:14 PM 44.6 °F 38.8 °F 30.2 °F 57% 29.76 in 10.0 mi WSW 11.5 mph - N/A   Clear
4:34 PM 42.8 °F 36.6 °F 30.2 °F 61% 29.76 in 10.0 mi WSW 11.5 mph - N/A   Clear
4:54 PM 42.8 °F 38.0 °F 28.4 °F 57% 29.77 in 10.0 mi West 8.1 mph - N/A   Clear
5:14 PM 39.2 °F 33.6 °F 28.4 °F 65% 29.77 in 10.0 mi WSW 8.1 mph - N/A   Clear
5:34 PM 39.2 °F 33.6 °F 28.4 °F 65% 29.78 in 10.0 mi WSW 8.1 mph - N/A   Clear
5:54 PM 39.2 °F 33.6 °F 28.4 °F 65% 29.78 in 10.0 mi SW 8.1 mph - N/A   Clear
6:14 PM 39.2 °F 33.6 °F 28.4 °F 65% 29.78 in 10.0 mi SW 8.1 mph - N/A   Clear
6:34 PM 39.2 °F 33.6 °F 28.4 °F 65% 29.79 in 10.0 mi SW 8.1 mph - N/A   Clear
6:54 PM 37.4 °F 32.1 °F 28.4 °F 70% 29.80 in 10.0 mi WSW 6.9 mph - N/A   Clear
7:14 PM 37.4 °F 32.1 °F 28.4 °F 70% 29.80 in 10.0 mi WSW 6.9 mph - N/A   Clear
7:34 PM 37.4 °F 31.4 °F 28.4 °F 70% 29.80 in 10.0 mi WSW 8.1 mph - N/A   Clear
7:54 PM 37.4 °F 32.1 °F 28.4 °F 70% 29.80 in 10.0 mi WSW 6.9 mph - N/A   Clear
8:14 PM 37.4 °F 32.1 °F 28.4 °F 70% 29.81 in 10.0 mi WSW 6.9 mph - N/A   Clear
8:34 PM 37.4 °F 32.1 °F 28.4 °F 70% 29.80 in 10.0 mi SW 6.9 mph - N/A   Clear
8:54 PM 35.6 °F 29.9 °F 28.4 °F 75% 29.80 in 10.0 mi SW 6.9 mph - N/A   Clear
9:34 PM 35.6 °F 29.9 °F 28.4 °F 75% 29.80 in 10.0 mi SW 6.9 mph - N/A   Clear
9:54 PM 35.6 °F 30.7 °F 28.4 °F 75% 29.80 in 10.0 mi SW 5.8 mph - N/A   Clear
10:14 PM 35.6 °F 29.9 °F 28.4 °F 75% 29.80 in 10.0 mi SSW 6.9 mph - N/A   Clear
10:34 PM 35.6 °F 30.7 °F 28.4 °F 75% 29.79 in 10.0 mi SW 5.8 mph - N/A   Clear
10:54 PM 35.6 °F 29.9 °F 28.4 °F 75% 29.78 in 10.0 mi SSW 6.9 mph - N/A   Clear
11:14 PM 35.6 °F 29.9 °F 28.4 °F 75% 29.79 in 10.0 mi SW 6.9 mph - N/A   Clear
11:34 PM 35.6 °F 29.9 °F 28.4 °F 75% 29.78 in 10.0 mi SW 6.9 mph - N/A   Clear
11:54 PM 35.6 °F 31.7 °F 26.6 °F 70% 29.78 in 10.0 mi SSW 4.6 mph - N/A   Clear